Terminal Aerodrome Forecast
Issued by NWS

Home | Current Version | Previous Version | Text Only | Print | Product List | Glossary On
Versions: 1 2 3 4 5 6 7 8 9 10
000
FTUS46 KMTR 280500
TAFSJC
TAF
KSJC 280528Z 2806/2906 00000KT P6SM BKN200
     FM281200 12006KT P6SM BKN200
     FM281900 31005KT P6SM SCT200
     FM290400 VRB03KT P6SM SKC=

USA.gov is the U.S. government's official web portal to all federal, state and local government web resources and services.